createdAt,value
2023-10-24T00:00:07.053Z,10.40
2023-10-24T00:02:43.051Z,10.25
2023-10-24T00:05:10.208Z,10.10
2023-10-24T00:07:37.147Z,10.82
2023-10-24T00:10:04.332Z,11.32
2023-10-24T00:12:31.884Z,10.88
2023-10-24T00:14:59.121Z,9.88
2023-10-24T00:17:26.145Z,9.80
2023-10-24T00:19:53.202Z,9.63
2023-10-24T00:22:20.361Z,10.32
2023-10-24T00:24:47.270Z,9.40
2023-10-24T00:27:14.092Z,9.23
2023-10-24T00:29:41.027Z,9.63
2023-10-24T00:32:08.080Z,9.68
2023-10-24T00:34:35.038Z,10.05
2023-10-24T00:37:01.914Z,9.82
2023-10-24T00:39:28.825Z,9.77
2023-10-24T00:41:55.678Z,10.70
2023-10-24T00:44:22.718Z,11.30
2023-10-24T00:46:50.034Z,11.23
2023-10-24T00:49:17.856Z,12.23
2023-10-24T00:51:44.805Z,12.77
2023-10-24T00:54:15.457Z,12.00
2023-10-24T00:56:47.386Z,12.18
2023-10-24T00:59:17.981Z,12.50
2023-10-24T01:01:45.286Z,12.15
2023-10-24T01:04:13.527Z,12.77
2023-10-24T01:06:40.592Z,12.57
2023-10-24T01:09:07.480Z,13.40
2023-10-24T01:11:34.461Z,13.05
2023-10-24T01:14:04.063Z,13.60
2023-10-24T01:16:34.900Z,13.43
2023-10-24T01:19:01.884Z,14.05
2023-10-24T01:21:28.783Z,14.65
2023-10-24T01:23:58.469Z,13.57
2023-10-24T01:26:27.469Z,13.98
2023-10-24T01:28:54.736Z,13.93
2023-10-24T01:31:21.679Z,14.18
2023-10-24T01:33:49.126Z,13.23
2023-10-24T01:36:16.450Z,13.73
2023-10-24T01:38:43.432Z,13.07
2023-10-24T01:41:10.392Z,12.80
2023-10-24T01:43:37.439Z,12.95
2023-10-24T01:46:05.046Z,12.95
2023-10-24T01:48:32.063Z,13.27
2023-10-24T01:50:58.958Z,13.43
2023-10-24T01:53:26.829Z,13.65
2023-10-24T01:55:53.885Z,12.95
2023-10-24T01:58:21.421Z,13.50
2023-10-24T02:00:48.349Z,14.23
2023-10-24T02:03:15.388Z,14.00
2023-10-24T02:05:42.276Z,13.65
2023-10-24T02:08:09.137Z,13.07
2023-10-24T02:10:35.991Z,14.07
2023-10-24T02:13:03.306Z,14.27
2023-10-24T02:15:30.227Z,14.63
2023-10-24T02:17:58.564Z,14.18
2023-10-24T02:20:25.448Z,14.35
2023-10-24T02:22:52.293Z,13.98
2023-10-24T02:25:19.161Z,13.77
2023-10-24T02:27:48.327Z,14.43
2023-10-24T02:30:15.214Z,14.13
2023-10-24T02:32:42.218Z,13.93
2023-10-24T02:35:09.251Z,13.75
2023-10-24T02:37:36.227Z,13.95
2023-10-24T02:40:03.803Z,12.90
2023-10-24T02:42:30.617Z,13.13
2023-10-24T02:44:57.557Z,13.50
2023-10-24T02:47:24.598Z,13.75
2023-10-24T02:49:51.611Z,13.30
2023-10-24T02:52:18.988Z,12.77
2023-10-24T02:54:45.893Z,13.57
2023-10-24T02:57:12.775Z,13.27
2023-10-24T02:59:39.641Z,12.88
2023-10-24T03:02:06.579Z,13.18
2023-10-24T03:04:34.863Z,14.68
2023-10-24T03:07:01.717Z,14.90
2023-10-24T03:09:28.721Z,15.73
2023-10-24T03:11:55.720Z,15.30
2023-10-24T03:14:22.612Z,14.63
2023-10-24T03:16:50.113Z,13.15
2023-10-24T03:19:17.335Z,13.00
2023-10-24T03:21:44.270Z,12.68
2023-10-24T03:24:11.231Z,12.93
2023-10-24T03:26:38.330Z,13.57
2023-10-24T03:29:05.720Z,13.57
2023-10-24T03:31:33.021Z,12.68
2023-10-24T03:34:00.164Z,13.15
2023-10-24T03:36:27.027Z,13.80
2023-10-24T03:38:53.967Z,12.98
2023-10-24T03:41:20.778Z,13.45
2023-10-24T03:43:50.472Z,12.23
2023-10-24T03:46:17.465Z,13.35
2023-10-24T03:48:44.517Z,12.95
2023-10-24T03:51:11.296Z,13.02
2023-10-24T03:53:39.783Z,13.15
2023-10-24T03:56:06.578Z,13.65
2023-10-24T03:58:33.398Z,12.95
2023-10-24T04:01:07.397Z,13.38
2023-10-24T04:03:35.953Z,15.52
2023-10-24T04:06:03.514Z,14.18
2023-10-24T04:08:30.272Z,15.30
2023-10-24T04:10:57.044Z,14.23
2023-10-24T04:13:24.086Z,15.40
2023-10-24T04:15:58.260Z,16.60
2023-10-24T04:18:25.190Z,17.13
2023-10-24T04:20:52.380Z,17.38
2023-10-24T04:23:19.244Z,17.20
2023-10-24T04:25:46.156Z,17.45
2023-10-24T04:28:13.413Z,15.48
2023-10-24T04:30:41.092Z,14.47
2023-10-24T04:33:09.326Z,13.95
2023-10-24T04:35:51.797Z,13.23
2023-10-24T04:38:19.388Z,13.27
2023-10-24T04:40:50.896Z,12.95
2023-10-24T04:43:17.855Z,13.50
2023-10-24T04:45:44.830Z,13.25
2023-10-24T04:48:12.118Z,13.57
2023-10-24T04:50:40.285Z,13.63
2023-10-24T04:55:34.555Z,12.70
2023-10-24T04:58:01.517Z,14.03
2023-10-24T05:00:28.426Z,13.13
2023-10-24T05:02:55.539Z,13.18
2023-10-24T05:05:22.555Z,13.60
2023-10-24T05:07:50.274Z,14.73
2023-10-24T05:10:17.311Z,13.77
2023-10-24T05:12:44.270Z,13.23
2023-10-24T05:15:14.241Z,14.20
2023-10-24T05:17:41.124Z,13.93
2023-10-24T05:20:08.696Z,14.38
2023-10-24T05:22:36.054Z,14.57
2023-10-24T05:25:03.310Z,14.90
2023-10-24T05:27:33.031Z,16.33
2023-10-24T05:29:59.964Z,17.25
2023-10-24T05:32:27.014Z,15.20
2023-10-24T05:34:54.085Z,14.70
2023-10-24T05:37:21.048Z,14.77
2023-10-24T05:39:48.324Z,14.25
2023-10-24T05:42:15.171Z,15.10
2023-10-24T05:44:42.193Z,14.68
2023-10-24T05:47:09.115Z,13.63
2023-10-24T05:49:36.083Z,14.63
2023-10-24T05:52:03.145Z,14.85
2023-10-24T05:54:30.124Z,14.73
2023-10-24T05:56:56.980Z,14.43
2023-10-24T05:59:23.843Z,14.65
2023-10-24T06:01:50.662Z,14.20
2023-10-24T06:04:17.605Z,13.85
2023-10-24T06:06:44.534Z,14.32
2023-10-24T06:09:13.762Z,13.85
2023-10-24T06:11:40.956Z,14.60
2023-10-24T06:14:07.843Z,13.32
2023-10-24T06:16:34.659Z,13.30
2023-10-24T06:19:01.783Z,13.48
2023-10-24T06:21:29.917Z,13.38
2023-10-24T06:23:57.023Z,13.25
2023-10-24T06:26:24.120Z,13.60
2023-10-24T06:28:51.061Z,13.82
2023-10-24T06:31:18.635Z,13.15
2023-10-24T06:33:45.553Z,13.75
2023-10-24T06:36:12.490Z,13.20
2023-10-24T06:38:39.453Z,13.23
2023-10-24T06:41:10.166Z,12.20
2023-10-24T06:43:37.186Z,13.10
2023-10-24T06:46:05.821Z,12.25
2023-10-24T06:48:33.773Z,12.95
2023-10-24T06:51:00.970Z,13.00
2023-10-24T06:53:27.993Z,12.48
2023-10-24T06:56:01.997Z,12.88
2023-10-24T06:58:29.372Z,12.73
2023-10-24T07:00:56.508Z,12.07
2023-10-24T07:03:23.682Z,12.80
2023-10-24T07:05:54.290Z,12.80
2023-10-24T07:08:22.080Z,12.45
2023-10-24T07:10:50.113Z,12.52
2023-10-24T07:15:48.016Z,12.75
2023-10-24T07:18:17.866Z,12.13
2023-10-24T07:20:44.908Z,11.43
2023-10-24T07:23:11.859Z,11.20
2023-10-24T07:25:38.674Z,11.40
2023-10-24T07:28:06.663Z,11.52
2023-10-24T07:30:33.666Z,11.23
2023-10-24T07:33:00.570Z,10.85
2023-10-24T07:35:27.552Z,10.82
2023-10-24T07:37:54.524Z,10.25
2023-10-24T07:40:21.698Z,10.80
2023-10-24T07:42:48.600Z,10.75
2023-10-24T07:45:15.776Z,9.82
2023-10-24T07:47:42.833Z,10.60
2023-10-24T07:50:10.912Z,10.40
2023-10-24T07:52:38.052Z,10.57
2023-10-24T07:55:05.528Z,10.80
2023-10-24T07:57:32.398Z,10.40
2023-10-24T07:59:59.531Z,10.27
2023-10-24T08:02:26.509Z,10.52
2023-10-24T08:04:53.559Z,11.05
2023-10-24T08:07:20.461Z,9.57
2023-10-24T08:09:47.361Z,10.68
2023-10-24T08:12:14.299Z,10.75
2023-10-24T08:14:41.280Z,10.23
2023-10-24T08:17:08.497Z,10.80
2023-10-24T08:19:35.589Z,10.70
2023-10-24T08:22:02.574Z,10.32
2023-10-24T08:24:30.550Z,10.40
2023-10-24T08:27:09.775Z,9.85
2023-10-24T08:29:38.282Z,10.20
2023-10-24T08:32:11.193Z,9.53
2023-10-24T08:34:44.825Z,9.35
2023-10-24T08:37:11.996Z,9.75
2023-10-24T08:39:38.847Z,8.63
2023-10-24T08:42:05.980Z,8.88
2023-10-24T08:44:34.604Z,8.10
2023-10-24T08:47:02.481Z,8.80
2023-10-24T08:49:30.617Z,8.13
2023-10-24T08:54:24.233Z,9.32
2023-10-24T08:56:52.768Z,8.07
2023-10-24T08:59:22.135Z,8.13
2023-10-24T09:04:18.587Z,7.40
2023-10-24T09:06:47.481Z,7.53
2023-10-24T09:09:15.255Z,6.93
2023-10-24T09:12:00.128Z,6.68
2023-10-24T09:14:41.020Z,6.97
2023-10-24T09:17:17.303Z,7.07
2023-10-24T09:19:45.131Z,6.75
2023-10-24T09:22:17.174Z,6.53
2023-10-24T09:24:49.689Z,6.88
2023-10-24T09:27:18.415Z,7.07
2023-10-24T09:29:49.822Z,6.72
2023-10-24T09:32:17.947Z,6.47
2023-10-24T09:37:17.882Z,6.32
2023-10-24T09:39:58.386Z,6.15
2023-10-24T09:42:31.009Z,6.28
2023-10-24T09:45:05.649Z,6.35
2023-10-24T09:47:33.696Z,5.82
2023-10-24T09:50:01.358Z,6.15
2023-10-24T09:52:30.542Z,5.93
2023-10-24T09:55:00.354Z,6.20
2023-10-24T09:57:29.926Z,6.18
2023-10-24T09:59:59.566Z,5.90
2023-10-24T10:02:28.158Z,5.60
2023-10-24T10:04:56.076Z,5.55
2023-10-24T10:09:54.196Z,5.65
2023-10-24T10:12:21.371Z,6.57
2023-10-24T10:15:15.641Z,6.80
2023-10-24T10:18:21.642Z,6.40
2023-10-24T10:21:08.474Z,6.50
2023-10-24T10:24:10.547Z,6.40
2023-10-24T10:27:04.432Z,6.28
2023-10-24T10:29:31.202Z,6.28
2023-10-24T10:32:39.109Z,6.20
2023-10-24T10:34:48.074Z,5.85
2023-10-24T10:37:15.542Z,6.22
2023-10-24T10:39:42.519Z,5.67
2023-10-24T10:42:55.947Z,5.60
2023-10-24T10:45:23.776Z,5.93
2023-10-24T10:47:51.624Z,5.78
2023-10-24T10:50:32.268Z,5.40
2023-10-24T10:53:25.801Z,5.60
2023-10-24T10:56:13.551Z,5.45
2023-10-24T11:02:00.526Z,5.63
2023-10-24T11:04:28.349Z,5.18
2023-10-24T11:06:57.175Z,5.40
2023-10-24T11:09:31.777Z,5.25
2023-10-24T11:12:25.493Z,5.47
2023-10-24T11:15:11.316Z,5.38
2023-10-24T11:17:38.247Z,5.10
2023-10-24T11:22:41.834Z,5.00
2023-10-24T11:25:17.197Z,5.25
2023-10-24T11:27:44.851Z,5.18
2023-10-24T11:30:12.122Z,5.28
2023-10-24T11:32:39.126Z,5.70
2023-10-24T11:35:06.768Z,5.25
2023-10-24T11:37:34.134Z,5.05
2023-10-24T11:40:01.168Z,5.60
2023-10-24T11:42:28.322Z,4.93
2023-10-24T11:44:55.814Z,4.80
2023-10-24T11:47:23.714Z,5.20
2023-10-24T11:49:50.689Z,5.43
2023-10-24T11:52:17.674Z,5.70
2023-10-24T11:54:52.409Z,5.78
2023-10-24T11:57:20.981Z,6.38
2023-10-24T11:59:49.810Z,6.00
2023-10-24T12:02:18.180Z,6.18
2023-10-24T12:04:52.355Z,5.88
2023-10-24T12:07:19.700Z,5.80
2023-10-24T12:09:46.538Z,6.10
2023-10-24T12:12:16.659Z,6.53
2023-10-24T12:14:44.682Z,6.97
2023-10-24T12:17:11.868Z,6.70
2023-10-24T12:19:39.552Z,7.17
2023-10-24T12:22:06.540Z,6.53
2023-10-24T12:24:33.387Z,6.95
2023-10-24T12:27:00.237Z,7.10
2023-10-24T12:29:27.078Z,6.53
2023-10-24T12:31:54.041Z,7.30
2023-10-24T12:34:21.008Z,6.82
2023-10-24T12:36:50.811Z,8.88
2023-10-24T12:39:18.695Z,9.43
2023-10-24T12:41:45.570Z,9.80
2023-10-24T12:44:12.449Z,8.43
2023-10-24T12:46:39.369Z,8.40
2023-10-24T12:49:06.413Z,7.45
2023-10-24T12:51:33.252Z,8.70
2023-10-24T12:54:00.053Z,7.57
2023-10-24T12:56:26.911Z,7.03
2023-10-24T12:58:55.210Z,8.10
2023-10-24T13:01:22.302Z,6.28
2023-10-24T13:03:49.515Z,7.10
2023-10-24T13:06:16.764Z,7.13
2023-10-24T13:08:43.740Z,7.10
2023-10-24T13:11:10.625Z,6.70
2023-10-24T13:13:37.792Z,6.53
2023-10-24T13:16:05.170Z,7.22
2023-10-24T13:18:32.149Z,6.68
2023-10-24T13:20:59.334Z,6.93
2023-10-24T13:23:27.319Z,7.03
2023-10-24T13:28:22.871Z,6.57
2023-10-24T13:31:07.240Z,6.80
2023-10-24T13:34:04.291Z,6.85
2023-10-24T13:38:56.285Z,6.88
2023-10-24T13:41:25.918Z,6.95
2023-10-24T13:43:58.237Z,7.65
2023-10-24T13:46:27.302Z,7.60
2023-10-24T13:48:54.548Z,7.97
2023-10-24T13:51:21.903Z,7.93
2023-10-24T13:53:48.968Z,7.87
2023-10-24T13:56:16.244Z,8.00
2023-10-24T13:58:43.709Z,8.00
2023-10-24T14:01:11.371Z,8.32
2023-10-24T14:03:38.537Z,8.68
2023-10-24T14:06:06.821Z,8.82
2023-10-24T14:08:35.943Z,9.40
2023-10-24T14:11:03.643Z,8.20
2023-10-24T14:13:30.690Z,8.90
2023-10-24T14:15:57.626Z,8.75
2023-10-24T14:18:24.571Z,9.25
2023-10-24T14:20:53.078Z,9.18
2023-10-24T14:23:20.183Z,9.60
2023-10-24T14:25:47.161Z,9.48
2023-10-24T14:28:14.084Z,10.27
2023-10-24T14:30:41.524Z,10.02
2023-10-24T14:33:08.379Z,11.05
2023-10-24T14:35:35.203Z,11.27
2023-10-24T14:38:03.602Z,10.80
2023-10-24T14:40:30.516Z,11.55
2023-10-24T14:42:59.764Z,10.82
2023-10-24T14:45:28.469Z,10.48
2023-10-24T14:47:55.842Z,9.75
2023-10-24T14:50:22.885Z,10.45
2023-10-24T14:52:49.904Z,10.48
2023-10-24T14:55:16.905Z,10.82
2023-10-24T14:57:43.686Z,10.40
2023-10-24T15:00:11.275Z,10.98
2023-10-24T15:02:40.043Z,10.20
2023-10-24T15:05:07.512Z,10.93
2023-10-24T15:07:34.448Z,11.23
2023-10-24T15:10:01.545Z,10.93
2023-10-24T15:12:28.458Z,11.55
2023-10-24T15:14:55.378Z,11.27
2023-10-24T15:17:22.589Z,11.73
2023-10-24T15:19:49.486Z,12.38
2023-10-24T15:22:17.781Z,12.55
2023-10-24T15:24:44.765Z,15.95
2023-10-24T15:27:11.616Z,19.30
2023-10-24T15:29:38.460Z,24.40
2023-10-24T15:32:09.040Z,22.23
2023-10-24T15:34:35.938Z,21.35
2023-10-24T15:37:04.516Z,21.55
2023-10-24T15:39:31.326Z,23.02
2023-10-24T15:41:58.151Z,18.70
2023-10-24T15:44:25.534Z,16.17
2023-10-24T15:46:52.551Z,17.13
2023-10-24T15:49:19.425Z,14.55
2023-10-24T15:51:47.109Z,13.98
2023-10-24T15:54:13.992Z,13.68
2023-10-24T15:56:41.300Z,13.07
2023-10-24T15:59:08.199Z,13.30
2023-10-24T16:01:35.180Z,12.90
2023-10-24T16:04:02.294Z,13.15
2023-10-24T16:06:29.203Z,13.63
2023-10-24T16:08:56.111Z,13.85
2023-10-24T16:11:23.056Z,14.07
2023-10-24T16:13:50.229Z,18.38
2023-10-24T16:16:17.259Z,22.17
2023-10-24T16:18:44.155Z,24.25
2023-10-24T16:21:11.197Z,25.95
2023-10-24T16:23:37.993Z,25.88
2023-10-24T16:26:07.145Z,22.45
2023-10-24T16:28:39.286Z,20.08
2023-10-24T16:31:06.886Z,19.23
2023-10-24T16:33:33.960Z,19.20
2023-10-24T16:36:02.792Z,19.15
2023-10-24T16:38:31.312Z,18.10
2023-10-24T16:40:59.221Z,18.80
2023-10-24T16:43:27.201Z,19.35
2023-10-24T16:45:54.066Z,18.65
2023-10-24T16:48:24.318Z,19.10
2023-10-24T16:50:53.533Z,19.25
2023-10-24T16:53:20.969Z,19.83
2023-10-24T16:55:49.650Z,19.60
2023-10-24T16:58:17.167Z,19.73
2023-10-24T17:00:47.518Z,20.57
2023-10-24T17:03:14.612Z,20.40
2023-10-24T17:05:45.263Z,19.63
2023-10-24T17:08:13.022Z,19.85
2023-10-24T17:10:43.476Z,20.23
2023-10-24T17:13:11.503Z,20.10
2023-10-24T17:15:38.434Z,19.98
2023-10-24T17:18:05.512Z,20.00
2023-10-24T17:20:34.909Z,22.27
2023-10-24T17:23:02.974Z,20.40
2023-10-24T17:25:30.140Z,19.23
2023-10-24T17:27:57.511Z,21.05
2023-10-24T17:30:27.281Z,21.57
2023-10-24T17:32:55.334Z,20.75
2023-10-24T17:35:22.475Z,20.65
2023-10-24T17:37:49.495Z,20.85
2023-10-24T17:40:16.394Z,20.13
2023-10-24T17:42:45.467Z,20.38
2023-10-24T17:45:13.369Z,20.30
2023-10-24T17:47:40.307Z,20.50
2023-10-24T17:50:07.745Z,20.52
2023-10-24T17:52:35.006Z,20.15
2023-10-24T17:55:01.896Z,18.63
2023-10-24T17:57:28.877Z,19.88
2023-10-24T17:59:57.216Z,19.13
2023-10-24T18:02:24.639Z,19.98
2023-10-24T18:04:51.795Z,19.60
2023-10-24T18:09:48.576Z,19.60
2023-10-24T18:12:15.444Z,19.75
2023-10-24T18:14:42.582Z,19.48
2023-10-24T18:17:09.823Z,18.98
2023-10-24T18:19:36.944Z,20.30
2023-10-24T18:22:03.994Z,19.50
2023-10-24T18:24:31.172Z,20.10
2023-10-24T18:26:58.034Z,19.30
2023-10-24T18:29:25.036Z,19.02
2023-10-24T18:31:51.961Z,19.88
2023-10-24T18:34:18.854Z,18.75
2023-10-24T18:36:48.717Z,18.35
2023-10-24T18:39:15.818Z,18.58
2023-10-24T18:41:43.295Z,19.27
2023-10-24T18:44:12.699Z,19.35
2023-10-24T18:46:46.499Z,18.02
2023-10-24T18:49:13.875Z,21.35
2023-10-24T18:51:40.757Z,20.00
2023-10-24T18:54:07.642Z,19.83
2023-10-24T18:56:34.955Z,18.88
2023-10-24T18:59:04.810Z,17.87
2023-10-24T19:01:31.789Z,18.05
2023-10-24T19:03:58.923Z,18.20
2023-10-24T19:06:25.851Z,17.52
2023-10-24T19:08:53.171Z,18.00
2023-10-24T19:11:20.275Z,18.88
2023-10-24T19:13:47.725Z,19.10
2023-10-24T19:16:14.920Z,17.88
2023-10-24T19:18:42.029Z,18.45
2023-10-24T19:21:09.809Z,18.00
2023-10-24T19:23:36.952Z,18.35
2023-10-24T19:26:06.126Z,18.15
2023-10-24T19:28:34.260Z,18.08
2023-10-24T19:31:05.102Z,17.42
2023-10-24T19:33:32.281Z,18.80
2023-10-24T19:36:04.781Z,17.75
2023-10-24T19:38:33.997Z,17.40
2023-10-24T19:41:01.851Z,18.27
2023-10-24T19:43:29.149Z,17.85
2023-10-24T19:46:03.130Z,18.17
2023-10-24T19:48:31.442Z,18.48
2023-10-24T19:50:58.423Z,18.25
2023-10-24T19:53:25.457Z,17.75
2023-10-24T19:55:56.854Z,18.40
2023-10-24T19:58:26.654Z,17.45
2023-10-24T20:00:54.009Z,17.75
2023-10-24T20:03:21.360Z,17.67
2023-10-24T20:05:49.647Z,18.20
2023-10-24T20:12:31.280Z,16.23
2023-10-24T20:13:31.146Z,16.55
2023-10-24T20:16:02.202Z,15.60
2023-10-24T20:18:29.942Z,17.13
2023-10-24T20:20:57.291Z,16.80
2023-10-24T20:23:24.476Z,17.03
2023-10-24T20:25:54.372Z,15.95
2023-10-24T20:28:21.256Z,16.38
2023-10-24T20:30:48.194Z,15.60
2023-10-24T20:33:15.584Z,16.60
2023-10-24T20:35:42.450Z,16.33
2023-10-24T20:38:09.267Z,16.55
2023-10-24T20:40:36.072Z,17.45
2023-10-24T20:43:02.876Z,15.88
2023-10-24T20:45:29.821Z,17.13
2023-10-24T20:47:57.010Z,16.38
2023-10-24T20:50:23.973Z,16.58
2023-10-24T20:52:50.785Z,17.08
2023-10-24T20:55:17.654Z,15.57
2023-10-24T20:57:44.633Z,15.95
2023-10-24T21:00:11.864Z,17.42
2023-10-24T21:02:38.871Z,18.58
2023-10-24T21:05:06.024Z,15.68
2023-10-24T21:07:33.995Z,14.57
2023-10-24T21:10:01.394Z,14.85
2023-10-24T21:12:28.351Z,14.68
2023-10-24T21:14:55.628Z,14.93
2023-10-24T21:17:22.712Z,15.60
2023-10-24T21:19:49.497Z,14.55
2023-10-24T21:22:16.518Z,14.10
2023-10-24T21:24:43.450Z,13.50
2023-10-24T21:27:10.383Z,14.23
2023-10-24T21:29:37.165Z,14.80
2023-10-24T21:32:04.344Z,15.00
2023-10-24T21:34:31.223Z,14.02
2023-10-24T21:36:58.785Z,14.30
2023-10-24T21:39:25.818Z,14.82
2023-10-24T21:41:55.065Z,14.57
2023-10-24T21:44:22.071Z,15.55
2023-10-24T21:46:48.914Z,14.25
2023-10-24T21:49:15.810Z,15.43
2023-10-24T21:51:42.834Z,15.13
2023-10-24T21:54:09.724Z,14.98
2023-10-24T21:56:36.777Z,14.65
2023-10-24T21:59:03.638Z,14.80
2023-10-24T22:01:30.847Z,14.07
2023-10-24T22:03:57.782Z,14.57
2023-10-24T22:06:24.895Z,15.02
2023-10-24T22:08:51.753Z,14.68
2023-10-24T22:11:18.616Z,15.85
2023-10-24T22:13:45.435Z,15.73
2023-10-24T22:16:12.526Z,14.93
2023-10-24T22:18:39.371Z,15.07
2023-10-24T22:21:08.477Z,14.45
2023-10-24T22:23:35.324Z,14.65
2023-10-24T22:26:02.256Z,14.35
2023-10-24T22:28:29.367Z,14.55
2023-10-24T22:30:56.363Z,14.25
2023-10-24T22:33:23.581Z,13.75
2023-10-24T22:35:53.154Z,12.88
2023-10-24T22:38:20.207Z,13.55
2023-10-24T22:40:47.158Z,14.00
2023-10-24T22:43:14.118Z,13.57
2023-10-24T22:45:41.053Z,13.32
2023-10-24T22:48:08.128Z,13.02
2023-10-24T22:50:35.184Z,13.02
2023-10-24T22:53:02.129Z,14.45
2023-10-24T22:55:29.069Z,13.15
2023-10-24T22:57:56.116Z,14.18
2023-10-24T23:00:48.643Z,13.57
2023-10-24T23:03:17.981Z,14.40
2023-10-24T23:05:45.057Z,14.07
2023-10-24T23:08:11.920Z,13.57
2023-10-24T23:10:38.751Z,13.68
2023-10-24T23:13:07.420Z,13.98
2023-10-24T23:15:34.650Z,13.85
2023-10-24T23:18:01.605Z,15.07
2023-10-24T23:20:29.865Z,15.05
2023-10-24T23:22:56.694Z,14.38
2023-10-24T23:25:23.524Z,14.20
2023-10-24T23:27:51.705Z,14.13
2023-10-24T23:30:18.648Z,13.85
2023-10-24T23:32:45.472Z,14.32
2023-10-24T23:35:12.399Z,13.85
2023-10-24T23:37:39.611Z,14.45
2023-10-24T23:40:08.682Z,18.50
2023-10-24T23:42:35.573Z,16.92
2023-10-24T23:45:02.501Z,17.50
2023-10-24T23:47:29.409Z,13.82
2023-10-24T23:49:56.242Z,12.55
2023-10-24T23:52:23.148Z,12.32
2023-10-24T23:54:52.925Z,12.63
2023-10-24T23:57:19.902Z,12.05
2023-10-24T23:59:49.587Z,12.02
